Time;durP1;ratioP1;P1;durP2;ratioP2;P2;SDS_P1;SDS_P2;PMS_P1;PMS_P2;Temp;Humidity;BMP_temperature;BMP_pressure;BME280_temperature;BME280_humidity;BME280_pressure;Samples;Min_cycle;Max_cycle;Signal;HPM_P1;HPM_P2
2024/01/03 00:01:18;;;;;;;103.40;33.47;;;;;;;4.10;100.00;95228.22;5049765;28;20044;-74
2024/01/03 00:03:43;;;;;;;74.47;41.30;;;;;;;4.03;100.00;95235.66;5043569;28;20025;-74
2024/01/03 00:06:09;;;;;;;54.80;35.33;;;;;;;4.00;100.00;95243.72;5046763;28;20089;-75
2024/01/03 00:08:38;;;;;;;48.60;36.55;;;;;;;3.99;100.00;95250.69;5044744;28;20537;-75
2024/01/03 00:11:04;;;;;;;45.70;35.42;;;;;;;4.03;100.00;95250.44;5045010;28;20391;-75
2024/01/03 00:13:32;;;;;;;68.78;53.47;;;;;;;4.08;100.00;95243.97;5051667;28;20028;-75
2024/01/03 00:16:04;;;;;;;43.60;32.20;;;;;;;4.06;100.00;95250.22;5048835;28;20083;-75
2024/01/03 00:18:50;;;;;;;71.63;49.53;;;;;;;4.16;100.00;95246.00;5045509;28;20029;-75
2024/01/03 00:21:24;;;;;;;41.67;33.60;;;;;;;4.10;100.00;95244.69;5048634;28;20100;-75
2024/01/03 00:23:58;;;;;;;59.50;44.88;;;;;;;4.13;100.00;95234.03;5050282;28;20389;-75
2024/01/03 00:26:24;;;;;;;68.88;46.05;;;;;;;4.19;100.00;95232.75;5047123;28;20108;-74
2024/01/03 00:28:51;;;;;;;63.28;43.05;;;;;;;4.06;100.00;95240.63;5040258;28;20031;-74
2024/01/03 00:31:25;;;;;;;61.30;30.83;;;;;;;4.07;100.00;95226.66;5044897;28;20111;-74
2024/01/03 00:33:51;;;;;;;41.90;32.45;;;;;;;3.97;100.00;95221.31;5044053;28;20557;-74
2024/01/03 00:36:16;;;;;;;46.22;37.83;;;;;;;3.91;100.00;95228.72;5047637;28;20095;-74
2024/01/03 00:38:42;;;;;;;44.50;36.58;;;;;;;3.89;100.00;95222.81;5047928;28;20045;-74
2024/01/03 00:41:12;;;;;;;55.47;39.90;;;;;;;3.81;100.00;95223.38;5049100;28;20036;-74
2024/01/03 00:43:38;;;;;;;57.47;36.13;;;;;;;3.78;100.00;95228.81;5060372;28;20036;-74
2024/01/03 00:46:05;;;;;;;42.33;33.03;;;;;;;3.78;100.00;95213.19;5047239;28;20427;-75
2024/01/03 00:48:32;;;;;;;39.15;33.80;;;;;;;3.79;100.00;95215.69;5050042;28;20470;-74
2024/01/03 00:50:57;;;;;;;39.50;32.92;;;;;;;3.80;100.00;95209.53;5053698;28;20033;-74
2024/01/03 00:53:25;;;;;;;41.33;33.10;;;;;;;3.81;100.00;95203.38;5049210;28;20036;-74
2024/01/03 00:55:51;;;;;;;36.83;28.98;;;;;;;3.80;100.00;95245.13;5040961;28;20037;-74
2024/01/03 00:58:17;;;;;;;34.92;29.58;;;;;;;3.78;100.00;95249.63;5047069;28;20095;-74
2024/01/03 01:00:43;;;;;;;33.97;28.52;;;;;;;3.71;100.00;95239.66;5044530;28;20524;-74
2024/01/03 01:03:08;;;;;;;30.80;25.70;;;;;;;3.62;100.00;95242.91;5053894;28;20032;-74
2024/01/03 01:05:34;;;;;;;30.33;25.92;;;;;;;3.63;100.00;95252.38;5041194;28;20026;-74
2024/01/03 01:07:59;;;;;;;32.63;27.02;;;;;;;3.68;100.00;95245.09;5046159;28;20024;-74
2024/01/03 01:10:24;;;;;;;33.15;27.63;;;;;;;3.75;100.00;95245.47;5035723;28;20751;-74
2024/01/03 01:12:50;;;;;;;34.05;28.73;;;;;;;3.69;100.00;95238.09;5049325;28;20040;-74
2024/01/03 01:15:15;;;;;;;40.15;27.85;;;;;;;3.64;100.00;95248.03;5047619;28;20021;-75
2024/01/03 01:17:41;;;;;;;59.53;29.17;;;;;;;3.59;100.00;95235.34;5042401;28;20137;-74
2024/01/03 01:20:07;;;;;;;42.65;30.05;;;;;;;3.59;100.00;95235.34;5044795;28;20092;-75
2024/01/03 01:22:32;;;;;;;75.93;34.15;;;;;;;3.54;100.00;95235.69;5046965;28;20017;-74
2024/01/03 01:24:57;;;;;;;58.83;37.17;;;;;;;3.50;100.00;95225.59;5049704;28;20028;-75
2024/01/03 01:27:23;;;;;;;49.10;37.15;;;;;;;3.49;100.00;95232.56;5041536;28;20100;-74
2024/01/03 01:29:48;;;;;;;60.15;39.47;;;;;;;3.46;100.00;95235.38;5045686;28;20072;-75
2024/01/03 01:32:13;;;;;;;60.40;42.38;;;;;;;3.41;100.00;95222.69;5047568;28;20027;-74
2024/01/03 01:34:39;;;;;;;51.42;40.67;;;;;;;3.40;100.00;95215.00;5052539;28;20021;-74
2024/01/03 01:37:04;;;;;;;52.70;39.15;;;;;;;3.36;100.00;95217.00;5040370;28;20032;-74
2024/01/03 01:39:30;;;;;;;44.58;34.13;;;;;;;3.27;100.00;95222.84;5036812;28;20040;-73
2024/01/03 01:41:55;;;;;;;47.53;30.95;;;;;;;3.15;100.00;95227.97;5038138;28;20024;-74
2024/01/03 01:44:20;;;;;;;38.60;31.05;;;;;;;3.20;100.00;95235.47;5054771;28;20029;-73
2024/01/03 01:46:46;;;;;;;65.40;35.25;;;;;;;3.25;100.00;95232.53;5045331;28;20043;-74
2024/01/03 01:49:16;;;;;;;46.38;34.45;;;;;;;3.19;100.00;95230.34;5046767;28;20036;-74
2024/01/03 01:51:41;;;;;;;37.63;29.98;;;;;;;3.10;100.00;95230.06;5057324;28;20025;-74
2024/01/03 01:54:07;;;;;;;42.58;31.25;;;;;;;3.01;100.00;95225.53;5054470;28;20558;-73
2024/01/03 01:56:33;;;;;;;49.60;29.67;;;;;;;2.95;100.00;95231.13;5047597;28;20025;-73
2024/01/03 01:58:59;;;;;;;144.00;34.50;;;;;;;2.91;100.00;95229.69;5054681;28;20616;-74
2024/01/03 02:01:29;;;;;;;123.68;33.25;;;;;;;2.89;100.00;95240.22;5052355;28;20040;-74
2024/01/03 02:03:54;;;;;;;100.78;29.63;;;;;;;2.90;100.00;95239.28;5046200;28;20029;-74
2024/01/03 02:06:21;;;;;;;130.75;30.50;;;;;;;2.93;100.00;95240.81;5053165;28;20043;-74
2024/01/03 02:08:47;;;;;;;92.55;26.45;;;;;;;2.86;100.00;95237.78;5047706;28;20036;-74
2024/01/03 02:11:13;;;;;;;44.03;28.05;;;;;;;2.78;100.00;95237.50;5049173;28;20017;-74
2024/01/03 02:13:38;;;;;;;74.13;26.90;;;;;;;2.75;100.00;95235.13;5051006;28;20029;-74
2024/01/03 02:16:04;;;;;;;140.10;30.42;;;;;;;2.72;100.00;95228.34;5059427;28;20425;-74
2024/01/03 02:18:30;;;;;;;70.43;36.17;;;;;;;2.73;100.00;95217.00;5053832;28;20035;-74
2024/01/03 02:20:56;;;;;;;174.10;28.95;;;;;;;2.77;100.00;95209.84;5054377;28;20029;-74
2024/01/03 02:23:25;;;;;;;169.98;23.70;;;;;;;2.79;100.00;95210.56;5057199;28;20037;-74
2024/01/03 02:25:50;;;;;;;89.35;19.65;;;;;;;2.84;100.00;95200.66;5058923;28;20052;-74
2024/01/03 02:28:16;;;;;;;151.05;23.70;;;;;;;2.73;100.00;95196.22;5047504;28;20064;-75
2024/01/03 02:30:44;;;;;;;43.38;23.13;;;;;;;2.70;100.00;95191.22;5055418;28;20049;-74
2024/01/03 02:33:11;;;;;;;45.53;19.38;;;;;;;2.62;100.00;95193.53;5052946;28;20033;-74
2024/01/03 02:35:36;;;;;;;37.28;22.35;;;;;;;2.53;100.00;95185.41;5054733;28;20065;-74
2024/01/03 02:38:02;;;;;;;31.73;20.25;;;;;;;2.51;100.00;95202.88;5043627;28;20060;-74
2024/01/03 02:40:27;;;;;;;33.28;20.80;;;;;;;2.45;100.00;95190.31;5051378;28;20062;-74
2024/01/03 02:42:52;;;;;;;44.30;18.40;;;;;;;2.41;100.00;95194.06;5058591;28;20079;-74
2024/01/03 02:45:18;;;;;;;28.20;18.50;;;;;;;2.32;100.00;95197.25;5055827;28;20025;-74
2024/01/03 02:47:43;;;;;;;26.42;18.48;;;;;;;2.23;100.00;95199.56;5049360;28;20045;-74
2024/01/03 02:50:09;;;;;;;28.73;18.67;;;;;;;2.12;100.00;95195.09;5056451;28;20147;-74
2024/01/03 02:52:34;;;;;;;20.40;17.70;;;;;;;2.11;100.00;95187.41;5056117;28;20025;-74
2024/01/03 02:55:00;;;;;;;19.70;17.38;;;;;;;2.09;100.00;95189.25;5041674;28;20033;-74
2024/01/03 02:57:26;;;;;;;35.95;23.33;;;;;;;2.07;100.00;95186.78;5046894;28;20025;-74
2024/01/03 02:59:51;;;;;;;35.75;21.40;;;;;;;2.03;100.00;95177.53;5048359;28;20032;-74
2024/01/03 03:02:17;;;;;;;21.92;18.08;;;;;;;1.99;100.00;95170.88;5043308;28;20024;-74
2024/01/03 03:04:43;;;;;;;28.85;19.25;;;;;;;1.95;100.00;95169.41;5048029;28;20021;-74
2024/01/03 03:07:08;;;;;;;20.65;16.33;;;;;;;1.94;100.00;95168.59;5045794;28;20021;-74
2024/01/03 03:09:33;;;;;;;23.60;15.77;;;;;;;1.96;100.00;95161.53;5054908;28;20021;-74
2024/01/03 03:11:59;;;;;;;20.65;15.32;;;;;;;1.91;100.00;95152.38;5054409;28;20048;-74
2024/01/03 03:14:24;;;;;;;20.08;15.40;;;;;;;1.83;100.00;95155.47;5055062;28;20083;-74
2024/01/03 03:16:50;;;;;;;24.67;16.92;;;;;;;1.74;100.00;95156.09;5047582;28;20013;-74
2024/01/03 03:19:15;;;;;;;22.77;15.27;;;;;;;1.69;100.00;95158.97;5052512;28;20053;-74
2024/01/03 03:21:40;;;;;;;19.83;13.77;;;;;;;1.70;100.00;95148.50;5047380;28;20024;-73
2024/01/03 03:24:07;;;;;;;19.65;14.00;;;;;;;1.66;100.00;95160.03;5046541;28;20055;-74
2024/01/03 03:26:32;;;;;;;21.63;12.98;;;;;;;1.66;100.00;95154.00;5047337;28;20021;-73
2024/01/03 03:28:58;;;;;;;19.50;13.02;;;;;;;1.83;100.00;95145.09;5051034;28;20512;-73
2024/01/03 03:31:23;;;;;;;17.38;11.70;;;;;;;1.82;100.00;95153.81;5049358;28;20508;-74
2024/01/03 03:33:48;;;;;;;16.63;12.15;;;;;;;1.78;100.00;95152.34;5049659;28;20816;-73
2024/01/03 03:36:14;;;;;;;17.60;11.80;;;;;;;1.69;100.00;95152.03;5058245;28;20033;-73
2024/01/03 03:38:40;;;;;;;14.73;11.60;;;;;;;1.62;100.00;95153.34;5041673;28;20031;-74
2024/01/03 03:41:12;;;;;;;15.80;11.65;;;;;;;1.61;100.00;95150.88;5049672;28;20788;-73
2024/01/03 03:43:39;;;;;;;13.43;10.52;;;;;;;1.62;100.00;95163.72;5038185;28;20036;-74
2024/01/03 03:46:08;;;;;;;14.95;10.48;;;;;;;1.59;100.00;95170.91;5050219;28;20104;-74
2024/01/03 03:48:34;;;;;;;11.93;10.30;;;;;;;1.62;100.00;95162.91;5052909;28;20174;-74
2024/01/03 03:51:03;;;;;;;12.70;9.88;;;;;;;1.61;100.00;95169.84;5051768;28;20052;-74
2024/01/03 03:53:28;;;;;;;13.38;10.63;;;;;;;1.64;100.00;95172.25;5044272;28;20484;-74
2024/01/03 03:55:53;;;;;;;9.65;8.65;;;;;;;1.63;100.00;95172.34;5046152;28;20040;-75
2024/01/03 03:58:19;;;;;;;9.93;8.18;;;;;;;1.60;100.00;95175.16;5046661;28;20489;-74
2024/01/03 04:00:44;;;;;;;9.70;8.70;;;;;;;1.47;100.00;95173.34;5051434;28;20044;-73
2024/01/03 04:03:09;;;;;;;9.10;8.20;;;;;;;1.48;100.00;95187.97;5047143;28;20025;-74
2024/01/03 04:05:38;;;;;;;11.15;9.07;;;;;;;1.47;100.00;95194.09;5049333;28;20021;-74
2024/01/03 04:08:04;;;;;;;11.60;9.80;;;;;;;1.46;100.00;95191.63;5047975;28;20091;-74
2024/01/03 04:10:30;;;;;;;17.70;12.15;;;;;;;1.44;100.00;95181.34;5052747;28;20025;-74
2024/01/03 04:12:55;;;;;;;19.77;13.82;;;;;;;1.41;100.00;95177.16;5047493;28;20382;-74
2024/01/03 04:15:22;;;;;;;18.17;12.35;;;;;;;1.35;100.00;95180.16;5044058;28;20033;-74
2024/01/03 04:17:47;;;;;;;18.70;12.20;;;;;;;1.32;100.00;95187.28;5042016;28;20104;-74
2024/01/03 04:20:13;;;;;;;12.80;10.35;;;;;;;1.30;100.00;95187.41;5045724;28;20080;-73
2024/01/03 04:22:42;;;;;;;17.30;13.40;;;;;;;1.35;100.00;95189.72;5049860;28;20025;-73
2024/01/03 04:25:08;;;;;;;18.75;14.82;;;;;;;1.39;100.00;95188.59;5054213;28;20029;-74
2024/01/03 04:27:33;;;;;;;17.77;13.80;;;;;;;1.36;100.00;95199.97;5054043;28;20089;-74
2024/01/03 04:29:59;;;;;;;15.10;11.60;;;;;;;1.38;100.00;95198.09;5047263;28;20025;-73
2024/01/03 04:32:24;;;;;;;17.33;12.10;;;;;;;1.33;100.00;95205.34;5039085;28;20029;-74
2024/01/03 04:34:49;;;;;;;15.52;12.27;;;;;;;1.24;100.00;95201.59;5049717;28;20036;-74
2024/01/03 04:37:15;;;;;;;15.13;10.65;;;;;;;1.23;100.00;95209.47;5036475;28;20076;-73
2024/01/03 04:39:40;;;;;;;15.27;11.23;;;;;;;1.30;100.00;95202.97;5046723;28;20048;-73
2024/01/03 04:42:06;;;;;;;13.13;9.75;;;;;;;1.32;100.00;95213.22;5046639;28;20032;-74
2024/01/03 04:44:31;;;;;;;13.70;9.55;;;;;;;1.29;100.00;95215.09;5049802;28;20029;-73
2024/01/03 04:46:56;;;;;;;11.98;9.20;;;;;;;1.30;100.00;95223.72;5047534;28;20517;-73
2024/01/03 04:49:22;;;;;;;11.90;9.10;;;;;;;1.31;100.00;95224.53;5044488;28;20032;-73
2024/01/03 04:51:47;;;;;;;12.85;9.65;;;;;;;1.33;100.00;95214.91;5049358;28;20633;-73
2024/01/03 04:54:12;;;;;;;17.95;10.68;;;;;;;1.40;100.00;95224.78;5051351;28;20027;-74
2024/01/03 04:56:38;;;;;;;15.43;9.82;;;;;;;1.49;100.00;95227.75;5041616;28;20056;-73
2024/01/03 04:59:03;;;;;;;13.40;10.55;;;;;;;1.50;100.00;95221.63;5044550;28;20040;-73
2024/01/03 05:01:29;;;;;;;12.98;9.85;;;;;;;1.54;100.00;95228.28;5048895;28;20108;-73
2024/01/03 05:03:54;;;;;;;11.75;10.05;;;;;;;1.57;100.00;95218.53;5049182;28;20063;-74
2024/01/03 05:06:20;;;;;;;13.50;9.85;;;;;;;1.64;100.00;95213.75;5051646;28;20075;-74
2024/01/03 05:08:45;;;;;;;9.75;8.73;;;;;;;1.68;100.00;95217.00;5044370;28;20100;-74
2024/01/03 05:11:11;;;;;;;12.13;8.75;;;;;;;1.74;100.00;95210.59;5053368;28;20474;-74
2024/01/03 05:13:36;;;;;;;9.10;8.20;;;;;;;1.77;100.00;95210.38;5046565;28;20037;-74
2024/01/03 05:16:02;;;;;;;10.35;8.38;;;;;;;1.94;100.00;95217.91;5048571;28;20493;-74
2024/01/03 05:18:27;;;;;;;7.13;6.53;;;;;;;2.09;100.00;95217.81;5048898;28;20077;-74
2024/01/03 05:20:53;;;;;;;8.60;7.28;;;;;;;2.07;100.00;95204.94;5043455;28;20047;-74
2024/01/03 05:23:18;;;;;;;9.23;7.95;;;;;;;2.02;100.00;95207.03;5050192;28;20565;-74
2024/01/03 05:25:44;;;;;;;8.38;7.53;;;;;;;2.00;100.00;95203.69;5064567;28;20472;-73
2024/01/03 05:28:09;;;;;;;9.40;8.43;;;;;;;1.99;100.00;95212.44;5052178;28;20088;-74
2024/01/03 05:30:35;;;;;;;10.32;9.43;;;;;;;1.99;100.00;95207.22;5052783;28;20115;-74
2024/01/03 05:33:00;;;;;;;19.73;11.23;;;;;;;2.00;100.00;95194.13;5053702;28;20060;-73
2024/01/03 05:35:25;;;;;;;12.55;11.50;;;;;;;2.03;100.00;95205.25;5041807;28;20380;-73
2024/01/03 05:37:51;;;;;;;12.73;11.50;;;;;;;2.03;100.00;95205.25;5052750;28;20035;-74
2024/01/03 05:40:18;;;;;;;13.98;12.70;;;;;;;2.04;100.00;95210.34;5051898;28;20021;-74
2024/01/03 05:42:44;;;;;;;22.70;20.05;;;;;;;2.05;100.00;95206.81;5052911;28;20079;-74
2024/01/03 05:45:09;;;;;;;17.48;15.70;;;;;;;2.03;100.00;95213.03;5049457;28;20024;-74
2024/01/03 05:47:35;;;;;;;16.02;14.50;;;;;;;2.05;100.00;95211.16;5043136;28;20125;-74
2024/01/03 05:50:00;;;;;;;14.40;13.10;;;;;;;2.09;100.00;95216.06;5051294;28;20021;-74
2024/01/03 05:52:25;;;;;;;16.35;14.45;;;;;;;2.14;100.00;95215.78;5036024;28;20041;-74
2024/01/03 05:54:51;;;;;;;16.20;14.50;;;;;;;2.17;100.00;95215.56;5035145;28;20041;-74
2024/01/03 05:57:16;;;;;;;14.38;12.95;;;;;;;2.20;100.00;95230.09;5035736;28;20036;-74
2024/01/03 05:59:41;;;;;;;13.98;12.57;;;;;;;2.26;100.00;95227.94;5049159;28;20056;-74
2024/01/03 06:02:07;;;;;;;40.30;20.95;;;;;;;2.26;100.00;95214.94;5035823;28;20030;-74
2024/01/03 06:04:32;;;;;;;35.55;20.13;;;;;;;2.29;100.00;95216.50;5044079;28;20083;-73
2024/01/03 06:06:58;;;;;;;30.25;18.02;;;;;;;2.33;100.00;95230.13;5035499;28;20092;-74
2024/01/03 06:09:23;;;;;;;17.73;12.52;;;;;;;2.52;100.00;95225.34;5035435;28;20025;-74
2024/01/03 06:11:49;;;;;;;11.50;10.35;;;;;;;2.57;100.00;95222.44;5027885;28;20033;-74
2024/01/03 06:14:14;;;;;;;13.10;11.80;;;;;;;2.52;100.00;95240.13;5049878;28;20023;-74
2024/01/03 06:16:40;;;;;;;14.68;12.93;;;;;;;2.42;100.00;95219.94;5051811;28;20072;-74
2024/01/03 06:19:05;;;;;;;17.25;13.45;;;;;;;2.43;100.00;95221.63;5051622;28;20056;-74
2024/01/03 06:21:32;;;;;;;18.08;13.93;;;;;;;2.46;100.00;95233.56;5054380;28;20033;-74
2024/01/03 06:23:58;;;;;;;16.38;14.25;;;;;;;2.47;100.00;95230.03;5054209;28;20040;-74
2024/01/03 06:26:26;;;;;;;18.67;14.02;;;;;;;2.46;100.00;95245.72;5048696;28;20032;-74
2024/01/03 06:28:51;;;;;;;19.58;16.05;;;;;;;2.43;100.00;95238.97;5050735;28;20017;-74
2024/01/03 06:31:23;;;;;;;18.35;16.13;;;;;;;2.45;100.00;95250.06;5049947;28;20047;-74
2024/01/03 06:33:49;;;;;;;19.73;17.33;;;;;;;2.54;100.00;95254.69;5039682;28;20029;-74
2024/01/03 06:36:14;;;;;;;20.95;17.20;;;;;;;2.55;100.00;95245.09;5039019;28;20059;-74
2024/01/03 06:38:40;;;;;;;25.10;22.40;;;;;;;2.54;100.00;95254.69;5051002;28;20017;-73
2024/01/03 06:41:06;;;;;;;18.88;16.98;;;;;;;2.60;100.00;95247.41;5050812;28;20158;-73
2024/01/03 06:43:31;;;;;;;20.30;18.17;;;;;;;2.70;100.00;95245.81;5055544;28;20040;-73
2024/01/03 06:45:57;;;;;;;44.13;39.28;;;;;;;2.77;100.00;95223.69;5047201;28;20034;-73
2024/01/03 06:48:22;;;;;;;15.45;14.05;;;;;;;2.93;100.00;95231.25;5050838;28;20445;-74
2024/01/03 06:50:47;;;;;;;17.48;15.82;;;;;;;3.03;100.00;95218.44;5046710;28;20020;-75
2024/01/03 06:53:14;;;;;;;19.30;17.30;;;;;;;3.02;100.00;95224.59;5043839;28;20029;-74
2024/01/03 06:55:39;;;;;;;22.38;20.25;;;;;;;3.03;100.00;95215.00;5057374;28;20025;-75
2024/01/03 06:58:05;;;;;;;21.27;18.55;;;;;;;3.00;100.00;95218.66;5056528;28;20027;-74
2024/01/03 07:00:30;;;;;;;23.00;20.83;;;;;;;3.06;100.00;95220.81;5057259;28;20040;-74
2024/01/03 07:02:56;;;;;;;22.50;20.55;;;;;;;3.06;100.00;95226.03;5045792;28;20025;-74
2024/01/03 07:05:21;;;;;;;22.15;20.23;;;;;;;3.08;100.00;95224.16;5047601;28;20250;-74
2024/01/03 07:07:47;;;;;;;17.98;16.23;;;;;;;3.25;100.00;95217.75;5042393;28;20037;-74
2024/01/03 07:10:12;;;;;;;18.67;16.88;;;;;;;3.27;100.00;95222.84;5037852;28;20030;-73
2024/01/03 07:12:38;;;;;;;23.27;21.17;;;;;;;3.22;100.00;95222.34;5052583;28;20381;-74
2024/01/03 07:15:05;;;;;;;27.63;25.10;;;;;;;3.18;100.00;95220.88;5056388;28;20025;-74
2024/01/03 07:17:30;;;;;;;22.70;20.60;;;;;;;3.22;100.00;95217.97;5047020;28;20113;-74
2024/01/03 07:19:56;;;;;;;48.33;43.97;;;;;;;3.17;100.00;95224.44;5055960;28;20098;-74
2024/01/03 07:22:21;;;;;;;45.50;41.28;;;;;;;3.15;100.00;95235.78;5049115;28;20437;-73
2024/01/03 07:24:47;;;;;;;43.75;39.45;;;;;;;3.17;100.00;95245.25;5049761;28;20082;-74
2024/01/03 07:27:12;;;;;;;47.28;42.63;;;;;;;3.15;100.00;95235.78;5054122;28;20052;-73
2024/01/03 07:29:38;;;;;;;42.42;38.22;;;;;;;3.17;100.00;95245.25;5054400;28;20025;-74
2024/01/03 07:32:03;;;;;;;37.30;33.72;;;;;;;3.14;100.00;95241.09;5041127;28;20155;-74
2024/01/03 07:34:31;;;;;;;36.15;32.75;;;;;;;3.13;100.00;95249.84;5047320;28;20029;-74
2024/01/03 07:36:56;;;;;;;35.85;32.45;;;;;;;3.12;100.00;95251.59;5041418;28;20040;-73
2024/01/03 07:39:22;;;;;;;37.20;33.90;;;;;;;3.15;100.00;95247.97;5047402;28;20446;-73
2024/01/03 07:41:48;;;;;;;37.58;34.17;;;;;;;3.14;100.00;95244.53;5055669;28;20024;-73
2024/01/03 07:44:14;;;;;;;31.73;28.63;;;;;;;3.17;100.00;95235.69;5056417;28;20025;-73
2024/01/03 07:46:39;;;;;;;25.77;23.48;;;;;;;3.22;100.00;95232.75;5044000;28;20367;-73
2024/01/03 07:49:05;;;;;;;27.05;22.67;;;;;;;3.23;100.00;95229.22;5046545;28;20522;-74
2024/01/03 07:51:30;;;;;;;25.30;22.65;;;;;;;3.21;100.00;95225.91;5051989;28;20055;-74
2024/01/03 07:53:55;;;;;;;21.92;19.65;;;;;;;3.23;100.00;95221.41;5056766;28;20029;-74
2024/01/03 07:56:21;;;;;;;17.65;16.05;;;;;;;3.27;100.00;95221.06;5056128;28;20447;-73
2024/01/03 07:58:46;;;;;;;36.33;29.95;;;;;;;3.29;100.00;95218.38;5055264;28;20724;-74
2024/01/03 08:01:12;;;;;;;18.20;16.63;;;;;;;3.40;100.00;95221.03;5056477;28;20115;-73
2024/01/03 08:03:37;;;;;;;15.98;13.13;;;;;;;3.37;100.00;95236.06;5056383;28;20033;-73
2024/01/03 08:06:03;;;;;;;18.65;16.75;;;;;;;3.35;100.00;95228.34;5056177;28;20523;-74
2024/01/03 08:08:28;;;;;;;30.73;23.35;;;;;;;3.33;100.00;95235.44;5048156;28;20044;-74
2024/01/03 08:10:54;;;;;;;27.95;23.85;;;;;;;3.32;100.00;95246.78;5047130;28;20048;-74
2024/01/03 08:13:19;;;;;;;24.45;21.85;;;;;;;3.34;100.00;95250.09;5055093;28;20033;-73
2024/01/03 08:15:45;;;;;;;28.15;23.05;;;;;;;3.34;100.00;95255.31;5056397;28;20029;-73
2024/01/03 08:18:10;;;;;;;25.85;23.25;;;;;;;3.34;100.00;95260.50;5047960;28;20057;-73
2024/01/03 08:20:36;;;;;;;25.95;23.02;;;;;;;3.35;100.00;95267.38;5052032;28;20074;-73
2024/01/03 08:23:01;;;;;;;24.80;22.20;;;;;;;3.38;100.00;95268.94;5044309;28;20025;-74
2024/01/03 08:25:26;;;;;;;25.35;22.55;;;;;;;3.39;100.00;95271.41;5054597;28;20108;-73
2024/01/03 08:27:52;;;;;;;26.02;23.50;;;;;;;3.40;100.00;95278.28;5049189;28;20109;-73
2024/01/03 08:30:17;;;;;;;23.92;21.55;;;;;;;3.43;100.00;95272.88;5054973;28;20025;-73
2024/01/03 08:32:43;;;;;;;27.65;24.60;;;;;;;3.48;100.00;95253.50;5045791;28;20026;-73
2024/01/03 08:35:09;;;;;;;32.38;27.67;;;;;;;3.55;100.00;95268.59;5039380;28;20021;-73
2024/01/03 08:37:34;;;;;;;26.42;23.40;;;;;;;3.59;100.00;95276.97;5048316;28;20072;-73
2024/01/03 08:40:00;;;;;;;27.02;22.90;;;;;;;3.64;100.00;95292.28;5042252;28;20024;-73
2024/01/03 08:42:26;;;;;;;25.02;22.55;;;;;;;3.67;100.00;95274.69;5048030;28;20030;-73
2024/01/03 08:44:51;;;;;;;29.60;26.38;;;;;;;3.70;100.00;95263.19;5051177;28;20268;-73
2024/01/03 08:47:17;;;;;;;29.38;26.27;;;;;;;3.75;100.00;95260.28;5053708;28;20136;-73
2024/01/03 08:49:43;;;;;;;29.30;25.35;;;;;;;3.80;100.00;95258.16;5055088;28;20040;-73
2024/01/03 08:52:09;;;;;;;26.00;22.67;;;;;;;3.84;100.00;95257.00;5041921;28;20067;-73
2024/01/03 08:54:34;;;;;;;47.50;35.50;;;;;;;3.83;100.00;95252.72;5053915;28;20052;-73
2024/01/03 08:57:00;;;;;;;28.15;25.15;;;;;;;3.88;100.00;95258.47;5055061;28;20418;-73
2024/01/03 08:59:25;;;;;;;47.90;39.75;;;;;;;3.87;100.00;95256.78;5050573;28;20041;-73
2024/01/03 09:01:52;;;;;;;53.95;40.15;;;;;;;3.96;100.00;95263.09;5052741;28;20021;-73
2024/01/03 09:04:18;;;;;;;69.55;51.17;;;;;;;3.98;100.00;95267.25;5052403;28;20033;-73
2024/01/03 09:06:43;;;;;;;84.05;64.63;;;;;;;3.94;100.00;95267.56;5055277;28;20599;-74
2024/01/03 09:09:08;;;;;;;55.42;45.00;;;;;;;3.91;100.00;95263.44;5055034;28;20049;-74
2024/01/03 09:11:34;;;;;;;88.47;75.35;;;;;;;3.97;100.00;95267.34;5044876;28;20052;-74
2024/01/03 09:14:00;;;;;;;40.35;34.17;;;;;;;4.06;100.00;95250.22;5039895;28;20481;-73
2024/01/03 09:16:30;;;;;;;35.58;32.28;;;;;;;4.12;100.00;95255.81;5047040;28;20030;-74
2024/01/03 09:18:56;;;;;;;34.22;30.88;;;;;;;4.23;100.00;95255.03;5046263;28;20029;-73
2024/01/03 09:21:22;;;;;;;38.90;35.00;;;;;;;4.30;100.00;95253.59;5051635;28;20525;-73
2024/01/03 09:23:47;;;;;;;36.03;32.60;;;;;;;4.43;100.00;95240.53;5042361;28;20029;-74
2024/01/03 09:26:15;;;;;;;28.42;25.50;;;;;;;4.54;100.00;95239.72;5039111;28;20109;-73
2024/01/03 09:28:41;;;;;;;25.52;23.00;;;;;;;4.58;100.00;95235.91;5044202;28;20025;-73
2024/01/03 09:31:07;;;;;;;26.17;23.48;;;;;;;4.67;100.00;95241.38;5048520;28;20104;-73
2024/01/03 09:33:33;;;;;;;25.95;23.35;;;;;;;4.80;100.00;95249.94;5046337;28;20040;-74
2024/01/03 09:35:58;;;;;;;28.23;25.52;;;;;;;4.86;100.00;95240.78;5042131;28;20033;-73
2024/01/03 09:38:24;;;;;;;30.77;27.40;;;;;;;4.98;100.00;95252.91;5043781;28;20485;-73
2024/01/03 09:40:50;;;;;;;31.20;28.00;;;;;;;5.07;100.00;95251.38;5043844;28;20022;-73
2024/01/03 09:43:16;;;;;;;30.50;27.25;;;;;;;5.13;100.00;95255.28;5047707;28;20017;-73
2024/01/03 09:45:42;;;;;;;26.50;23.40;;;;;;;5.24;100.00;95242.22;5040895;28;20029;-73
2024/01/03 09:48:09;;;;;;;26.35;23.55;;;;;;;5.43;100.00;95246.84;5043971;28;20179;-74
2024/01/03 09:50:34;;;;;;;29.30;26.27;;;;;;;5.58;100.00;95252.63;5052978;28;20095;-73
2024/01/03 09:53:00;;;;;;;38.92;31.25;;;;;;;5.69;100.00;95251.75;5044808;28;20029;-73
2024/01/03 09:55:29;;;;;;;19.17;17.48;;;;;;;5.68;100.00;95250.09;5045775;28;20071;-73
2024/01/03 09:57:55;;;;;;;20.65;18.75;;;;;;;5.65;100.00;95252.97;5045698;28;20026;-74
2024/01/03 10:00:20;;;;;;;30.00;26.95;;;;;;;5.59;100.00;95254.28;5038170;28;20368;-73
2024/01/03 10:02:47;;;;;;;25.98;23.15;;;;;;;5.57;100.00;95257.94;5043681;28;20104;-73
2024/01/03 10:05:22;;;;;;;24.25;21.85;;;;;;;5.61;100.00;95241.09;5048627;28;20022;-73
2024/01/03 10:07:48;;;;;;;15.57;14.18;;;;;;;5.72;100.00;95238.47;5051655;28;20025;-74
2024/01/03 10:10:32;;;;;;;19.88;18.00;;;;;;;5.91;100.00;95231.75;5047311;28;20036;-73
2024/01/03 10:13:15;;;;;;;19.15;16.65;;;;;;;6.09;100.00;95241.69;5048191;28;20032;-75
2024/01/03 10:15:41;;;;;;;17.08;15.48;;;;;;;6.06;100.00;95234.94;5039335;28;20409;-74
2024/01/03 10:18:08;;;;;;;18.05;16.05;;;;;;;5.96;100.00;95255.72;5054982;28;20031;-74
2024/01/03 10:20:34;;;;;;;14.57;13.10;;;;;;;5.96;100.00;95268.78;5049523;28;20040;-75
2024/01/03 10:23:04;;;;;;;16.10;14.50;;;;;;;6.04;100.00;95267.34;5051507;28;20021;-74
2024/01/03 10:25:29;;;;;;;14.38;12.93;;;;;;;6.22;100.00;95268.47;5044344;28;20061;-74
2024/01/03 10:28:00;;;;;;;19.73;17.67;;;;;;;6.29;100.00;95272.22;5047369;28;20486;-73
2024/01/03 10:30:26;;;;;;;20.02;17.95;;;;;;;6.41;100.00;95267.81;5049526;28;20029;-73
2024/01/03 10:32:58;;;;;;;21.65;19.58;;;;;;;6.65;100.00;95248.41;5038916;28;20040;-74
2024/01/03 10:35:29;;;;;;;20.85;18.92;;;;;;;6.69;100.00;95247.19;5045769;28;20065;-74
2024/01/03 10:37:56;;;;;;;36.85;32.92;;;;;;;6.84;100.00;95260.78;5043621;28;20044;-74
2024/01/03 10:40:25;;;;;;;16.77;15.25;;;;;;;6.94;100.00;95265.22;5041776;28;20026;-75
2024/01/03 10:42:51;;;;;;;12.60;11.60;;;;;;;6.95;100.00;95285.19;5043284;28;20133;-74
2024/01/03 10:45:17;;;;;;;11.13;10.02;;;;;;;6.92;100.00;95309.84;5039981;28;20736;-74
2024/01/03 10:47:42;;;;;;;12.35;11.23;;;;;;;7.03;100.00;95328.09;5041155;28;20107;-75
2024/01/03 10:50:08;;;;;;;12.80;11.60;;;;;;;7.14;100.00;95349.94;5047047;28;20016;-74
2024/01/03 10:52:37;;;;;;;14.82;13.43;;;;;;;7.30;100.00;95373.88;5048007;28;20038;-72
2024/01/03 10:55:06;;;;;;;15.35;14.10;;;;;;;7.31;100.00;95390.41;5047697;28;20506;-69
2024/01/03 10:57:35;;;;;;;41.03;37.22;;;;;;;7.39;100.00;95398.44;5049519;28;20029;-71
2024/01/03 11:00:24;;;;;;;16.52;14.82;;;;;;;7.58;100.00;95444.88;5050764;28;20025;-72
2024/01/03 11:03:23;;;;;;;15.30;14.00;;;;;;;7.76;100.00;95462.63;5025904;28;20033;-72
2024/01/03 11:06:18;;;;;;;12.95;11.77;;;;;;;7.98;100.00;95485.19;5032608;28;20045;-70
2024/01/03 11:08:50;;;;;;;9.13;6.80;;;;;;;8.03;100.00;95509.22;5044713;28;20398;-71
2024/01/03 11:11:32;;;;;;;33.15;24.70;;;;;;;8.16;100.00;95513.44;5049131;28;20025;-76
2024/01/03 11:13:58;;;;;;;45.05;41.17;;;;;;;8.35;100.00;95517.09;5044845;28;20028;-74